sensor_id;sensor_type;location;lat;lon;timestamp;pressure;altitude;pressure_sealevel;temperature;humidity
48352;BME280;34163;49.314;6.752;2023-07-02T08:13:02;99300.88;;;10.60;100.00
48352;BME280;34163;49.314;6.752;2023-07-02T08:15:27;99301.47;;;10.48;100.00
48352;BME280;34163;49.314;6.752;2023-07-02T08:17:52;99299.72;;;10.48;100.00
48352;BME280;34163;49.314;6.752;2023-07-02T08:20:19;99297.28;;;10.44;100.00
48352;BME280;34163;49.314;6.752;2023-07-02T08:22:45;99306.56;;;10.52;100.00
48352;BME280;34163;49.314;6.752;2023-07-02T08:25:10;99303.97;;;10.51;100.00
48352;BME280;34163;49.314;6.752;2023-07-02T08:27:35;99299.22;;;10.58;100.00
48352;BME280;34163;49.314;6.752;2023-07-02T08:30:00;99305.31;;;10.42;100.00
48352;BME280;34163;49.314;6.752;2023-07-02T08:32:26;99305.22;;;10.44;100.00
48352;BME280;34163;49.314;6.752;2023-07-02T08:34:51;99303.91;;;10.52;100.00
48352;BME280;34163;49.314;6.752;2023-07-02T08:37:20;99302.53;;;10.63;100.00
48352;BME280;34163;49.314;6.752;2023-07-02T08:39:45;99303.66;;;10.57;100.00
48352;BME280;34163;49.314;6.752;2023-07-02T08:42:10;99303.75;;;10.56;100.00
48352;BME280;34163;49.314;6.752;2023-07-02T08:44:36;99314.59;;;10.68;100.00
48352;BME280;34163;49.314;6.752;2023-07-02T08:47:01;99314.56;;;10.86;100.00
48352;BME280;34163;49.314;6.752;2023-07-02T08:49:26;99314.63;;;11.19;100.00
48352;BME280;34163;49.314;6.752;2023-07-02T08:51:52;99321.81;;;11.17;100.00
48352;BME280;34163;49.314;6.752;2023-07-02T08:54:17;99320.34;;;10.94;100.00
48352;BME280;34163;49.314;6.752;2023-07-02T08:56:43;99305.16;;;10.80;100.00
48352;BME280;34163;49.314;6.752;2023-07-02T08:59:09;99310.84;;;10.72;100.00
48352;BME280;34163;49.314;6.752;2023-07-02T09:01:47;99306.47;;;10.89;100.00
48352;BME280;34163;49.314;6.752;2023-07-02T09:04:19;99307.59;;;10.67;100.00
48352;BME280;34163;49.314;6.752;2023-07-02T09:06:45;99306.31;;;10.57;100.00
48352;BME280;34163;49.314;6.752;2023-07-02T09:09:10;99308.66;;;10.81;100.00
48352;BME280;34163;49.314;6.752;2023-07-02T09:11:45;99307.59;;;10.67;100.00
48352;BME280;34163;49.314;6.752;2023-07-02T09:14:11;99314.97;;;10.61;100.00
48352;BME280;34163;49.314;6.752;2023-07-02T09:16:37;99313.34;;;10.58;100.00
48352;BME280;34163;49.314;6.752;2023-07-02T09:19:06;99316.91;;;10.57;100.00
48352;BME280;34163;49.314;6.752;2023-07-02T09:21:45;99318.41;;;10.63;100.00
48352;BME280;34163;49.314;6.752;2023-07-02T12:56:20;99287.53;;;10.62;100.00
48352;BME280;34163;49.314;6.752;2023-07-02T12:58:46;99284.44;;;10.71;100.00
48352;BME280;34163;49.314;6.752;2023-07-02T13:01:11;99284.91;;;10.62;100.00
48352;BME280;34163;49.314;6.752;2023-07-02T13:03:37;99292.06;;;10.60;100.00
48352;BME280;34163;49.314;6.752;2023-07-02T13:06:03;99291.19;;;10.59;100.00
48352;BME280;34163;49.314;6.752;2023-07-02T13:08:28;99290.19;;;10.62;100.00
48352;BME280;34163;49.314;6.752;2023-07-02T13:10:53;99298.22;;;10.78;100.00
48352;BME280;34163;49.314;6.752;2023-07-02T13:13:18;99294.34;;;10.67;100.00
48352;BME280;34163;49.314;6.752;2023-07-02T13:15:44;99296.34;;;10.80;100.00
48352;BME280;34163;49.314;6.752;2023-07-02T13:18:09;99286.78;;;10.77;100.00
48352;BME280;34163;49.314;6.752;2023-07-02T13:20:34;99283.44;;;11.07;100.00
48352;BME280;34163;49.314;6.752;2023-07-02T13:22:59;99292.91;;;10.78;100.00
48352;BME280;34163;49.314;6.752;2023-07-02T13:25:25;99293.22;;;10.71;100.00
48352;BME280;34163;49.314;6.752;2023-07-02T13:27:50;99295.88;;;10.71;100.00
48352;BME280;34163;49.314;6.752;2023-07-02T13:30:15;99295.88;;;10.71;100.00
48352;BME280;34163;49.314;6.752;2023-07-02T13:32:41;99299.72;;;10.66;100.00
48352;BME280;34163;49.314;6.752;2023-07-02T13:35:06;99299.44;;;10.88;100.00
48352;BME280;34163;49.314;6.752;2023-07-02T13:37:31;99299.78;;;10.64;100.00
48352;BME280;34163;49.314;6.752;2023-07-02T13:39:57;99287.09;;;10.71;100.00
48352;BME280;34163;49.314;6.752;2023-07-02T13:42:22;99286.38;;;10.67;100.00
48352;BME280;34163;49.314;6.752;2023-07-02T13:44:47;99295.19;;;10.68;100.00
48352;BME280;34163;49.314;6.752;2023-07-02T13:47:13;99289.81;;;10.69;100.00
48352;BME280;34163;49.314;6.752;2023-07-02T13:49:38;99288.84;;;10.70;100.00
48352;BME280;34163;49.314;6.752;2023-07-02T13:52:03;99287.84;;;10.73;100.00
48352;BME280;34163;49.314;6.752;2023-07-02T13:54:29;99298.16;;;10.62;100.00
48352;BME280;34163;49.314;6.752;2023-07-02T13:56:55;99299.00;;;10.62;100.00
48352;BME280;34163;49.314;6.752;2023-07-02T13:59:21;99294.78;;;10.76;100.00
48352;BME280;34163;49.314;6.752;2023-07-02T14:01:46;99292.69;;;10.65;100.00
48352;BME280;34163;49.314;6.752;2023-07-02T14:04:12;99295.56;;;10.60;100.00
48352;BME280;34163;49.314;6.752;2023-07-02T14:06:38;99292.78;;;10.63;100.00
48352;BME280;34163;49.314;6.752;2023-07-02T14:09:04;99288.84;;;10.70;100.00
48352;BME280;34163;49.314;6.752;2023-07-02T14:11:29;99308.75;;;10.79;100.00
48352;BME280;34163;49.314;6.752;2023-07-02T14:13:55;99301.16;;;10.89;100.00
48352;BME280;34163;49.314;6.752;2023-07-02T14:16:20;99304.13;;;10.83;100.00
48352;BME280;34163;49.314;6.752;2023-07-02T14:18:47;99300.47;;;10.85;100.00
48352;BME280;34163;49.314;6.752;2023-07-02T14:21:12;99298.34;;;11.09;100.00
48352;BME280;34163;49.314;6.752;2023-07-02T14:23:37;99300.91;;;11.11;100.00
48352;BME280;34163;49.314;6.752;2023-07-02T14:26:03;99295.94;;;10.87;100.00
48352;BME280;34163;49.314;6.752;2023-07-02T14:28:28;99289.94;;;11.01;100.00
48352;BME280;34163;49.314;6.752;2023-07-02T14:31:04;99300.09;;;10.76;100.00
48352;BME280;34163;49.314;6.752;2023-07-02T14:33:30;99298.38;;;10.75;100.00
48352;BME280;34163;49.314;6.752;2023-07-02T14:35:56;99304.13;;;10.65;100.00
48352;BME280;34163;49.314;6.752;2023-07-02T14:38:22;99300.63;;;10.82;100.00
48352;BME280;34163;49.314;6.752;2023-07-02T14:40:48;99299.78;;;10.64;100.00
48352;BME280;34163;49.314;6.752;2023-07-02T14:43:13;99301.19;;;10.71;100.00
48352;BME280;34163;49.314;6.752;2023-07-02T14:45:49;99308.13;;;10.74;100.00
48352;BME280;34163;49.314;6.752;2023-07-02T14:48:15;99302.59;;;10.79;100.00
48352;BME280;34163;49.314;6.752;2023-07-02T14:50:43;99306.09;;;10.62;100.00
48352;BME280;34163;49.314;6.752;2023-07-02T14:53:10;99304.94;;;10.67;100.00
48352;BME280;34163;49.314;6.752;2023-07-02T14:55:36;99305.25;;;10.79;100.00
48352;BME280;34163;49.314;6.752;2023-07-02T14:58:01;99305.78;;;10.85;100.00
48352;BME280;34163;49.314;6.752;2023-07-02T15:00:26;99300.50;;;10.68;100.00
48352;BME280;34163;49.314;6.752;2023-07-02T15:02:51;99296.13;;;10.67;100.00
48352;BME280;34163;49.314;6.752;2023-07-02T15:05:17;99296.47;;;10.94;100.00
48352;BME280;34163;49.314;6.752;2023-07-02T15:07:42;99287.63;;;10.78;100.00
48352;BME280;34163;49.314;6.752;2023-07-02T15:10:07;99294.47;;;10.99;100.00
48352;BME280;34163;49.314;6.752;2023-07-02T15:12:32;99300.09;;;10.76;100.00
48352;BME280;34163;49.314;6.752;2023-07-02T15:15:00;99296.72;;;10.72;100.00
48352;BME280;34163;49.314;6.752;2023-07-02T15:17:25;99298.59;;;10.70;100.00
48352;BME280;34163;49.314;6.752;2023-07-02T15:19:53;99308.75;;;10.79;100.00
48352;BME280;34163;49.314;6.752;2023-07-02T15:22:18;99299.38;;;10.72;100.00
48352;BME280;34163;49.314;6.752;2023-07-02T15:24:43;99306.78;;;10.83;100.00
48352;BME280;34163;49.314;6.752;2023-07-02T15:27:08;99307.75;;;10.64;100.00
48352;BME280;34163;49.314;6.752;2023-07-02T15:29:34;99298.69;;;10.68;100.00
48352;BME280;34163;49.314;6.752;2023-07-02T15:31:59;99292.28;;;10.90;100.00
48352;BME280;34163;49.314;6.752;2023-07-02T15:34:24;99291.69;;;10.67;100.00
48352;BME280;34163;49.314;6.752;2023-07-02T15:36:49;99293.06;;;10.75;100.00
48352;BME280;34163;49.314;6.752;2023-07-02T15:39:15;99294.66;;;10.79;100.00
48352;BME280;34163;49.314;6.752;2023-07-02T15:41:47;99294.50;;;10.82;100.00
48352;BME280;34163;49.314;6.752;2023-07-02T15:44:12;99292.38;;;10.71;100.00
48352;BME280;34163;49.314;6.752;2023-07-02T15:46:37;99298.00;;;10.65;100.00
48352;BME280;34163;49.314;6.752;2023-07-02T15:49:02;99292.91;;;10.95;100.00
48352;BME280;34163;49.314;6.752;2023-07-02T15:51:28;99295.88;;;10.71;100.00
48352;BME280;34163;49.314;6.752;2023-07-02T15:53:53;99299.94;;;10.79;100.00
48352;BME280;34163;49.314;6.752;2023-07-02T15:56:23;99298.53;;;10.71;100.00
48352;BME280;34163;49.314;6.752;2023-07-02T15:58:51;99298.13;;;10.79;100.00
48352;BME280;34163;49.314;6.752;2023-07-02T16:01:17;99300.72;;;10.81;100.00
48352;BME280;34163;49.314;6.752;2023-07-02T16:03:42;99296.03;;;10.86;100.00
48352;BME280;34163;49.314;6.752;2023-07-02T16:06:11;99296.31;;;10.97;100.00
48352;BME280;34163;49.314;6.752;2023-07-02T16:08:36;99290.13;;;10.81;100.00
48352;BME280;34163;49.314;6.752;2023-07-02T16:11:06;99290.28;;;10.78;100.00
48352;BME280;34163;49.314;6.752;2023-07-02T16:13:35;99285.28;;;10.71;100.00
48352;BME280;34163;49.314;6.752;2023-07-02T16:16:02;99287.94;;;10.71;100.00
48352;BME280;34163;49.314;6.752;2023-07-02T16:18:28;99285.59;;;10.65;100.00
48352;BME280;34163;49.314;6.752;2023-07-02T16:20:55;99294.41;;;10.66;100.00
48352;BME280;34163;49.314;6.752;2023-07-02T16:23:20;99300.25;;;10.72;100.00
48352;BME280;34163;49.314;6.752;2023-07-02T16:25:55;99293.97;;;10.91;100.00
48352;BME280;34163;49.314;6.752;2023-07-02T16:28:20;99300.09;;;10.76;100.00
48352;BME280;34163;49.314;6.752;2023-07-02T16:30:46;99296.31;;;10.97;100.00
48352;BME280;34163;49.314;6.752;2023-07-02T16:33:12;99297.28;;;10.79;100.00
48352;BME280;34163;49.314;6.752;2023-07-02T16:35:38;99296.19;;;10.83;100.00
48352;BME280;34163;49.314;6.752;2023-07-02T16:38:03;99290.50;;;10.90;100.00
48352;BME280;34163;49.314;6.752;2023-07-02T16:40:30;99282.31;;;10.95;100.00
48352;BME280;34163;49.314;6.752;2023-07-02T16:42:55;99291.03;;;10.80;100.00
48352;BME280;34163;49.314;6.752;2023-07-02T16:45:21;99284.78;;;10.98;100.00
48352;BME280;34163;49.314;6.752;2023-07-02T16:47:46;99281.78;;;10.71;100.00
48352;BME280;34163;49.314;6.752;2023-07-02T16:50:11;99284.59;;;10.68;100.00
48352;BME280;34163;49.314;6.752;2023-07-02T16:52:36;99278.31;;;10.86;100.00
48352;BME280;34163;49.314;6.752;2023-07-02T16:55:02;99275.44;;;10.73;100.00
48352;BME280;34163;49.314;6.752;2023-07-02T16:57:27;99282.78;;;10.68;100.00
48352;BME280;34163;49.314;6.752;2023-07-02T16:59:52;99284.81;;;10.63;100.00
48352;BME280;34163;49.314;6.752;2023-07-02T17:02:17;99285.59;;;10.65;100.00
48352;BME280;34163;49.314;6.752;2023-07-02T17:04:43;99286.38;;;10.67;100.00
48352;BME280;34163;49.314;6.752;2023-07-02T17:07:08;99292.63;;;10.66;100.00
48352;BME280;34163;49.314;6.752;2023-07-02T17:09:35;99294.50;;;10.82;100.00
48352;BME280;34163;49.314;6.752;2023-07-02T17:12:03;99280.28;;;10.65;100.00
48352;BME280;34163;49.314;6.752;2023-07-02T17:14:29;99284.91;;;10.62;100.00
48352;BME280;34163;49.314;6.752;2023-07-02T17:16:56;99288.09;;;10.68;100.00
48352;BME280;34163;49.314;6.752;2023-07-02T17:19:26;99290.19;;;10.62;100.00
48352;BME280;34163;49.314;6.752;2023-07-02T17:21:52;99291.03;;;10.62;100.00
48352;BME280;34163;49.314;6.752;2023-07-02T17:24:22;99289.44;;;10.60;100.00
48352;BME280;34163;49.314;6.752;2023-07-02T17:26:48;99284.28;;;10.57;100.00
48352;BME280;34163;49.314;6.752;2023-07-02T17:29:13;99286.94;;;10.57;100.00
48352;BME280;34163;49.314;6.752;2023-07-02T17:31:42;99287.31;;;10.66;100.00
48352;BME280;34163;49.314;6.752;2023-07-02T17:34:08;99289.19;;;10.64;100.00
48352;BME280;34163;49.314;6.752;2023-07-02T17:36:33;99283.09;;;10.62;100.00
48352;BME280;34163;49.314;6.752;2023-07-02T17:38:58;99281.25;;;10.64;100.00
48352;BME280;34163;49.314;6.752;2023-07-02T17:41:23;99287.63;;;10.60;100.00
48352;BME280;34163;49.314;6.752;2023-07-02T17:43:49;99288.69;;;10.56;100.00
48352;BME280;34163;49.314;6.752;2023-07-02T17:46:14;99284.41;;;10.88;100.00
48352;BME280;34163;49.314;6.752;2023-07-02T17:48:39;99279.38;;;10.66;100.00
48352;BME280;34163;49.314;6.752;2023-07-02T17:51:04;99277.56;;;10.67;100.00
48352;BME280;34163;49.314;6.752;2023-07-02T17:53:30;99276.47;;;10.71;100.00
48352;BME280;34163;49.314;6.752;2023-07-02T17:55:55;99271.97;;;10.56;100.00
48352;BME280;34163;49.314;6.752;2023-07-02T17:58:20;99279.81;;;10.57;100.00
48352;BME280;34163;49.314;6.752;2023-07-02T18:00:47;99279.28;;;10.85;100.00
48352;BME280;34163;49.314;6.752;2023-07-02T18:03:12;99286.13;;;10.72;100.00
48352;BME280;34163;49.314;6.752;2023-07-02T18:05:38;99287.78;;;10.75;100.00
48352;BME280;34163;49.314;6.752;2023-07-02T18:08:03;99273.59;;;10.93;100.00
48352;BME280;34163;49.314;6.752;2023-07-02T18:10:28;99290.44;;;10.75;100.00
48352;BME280;34163;49.314;6.752;2023-07-02T18:12:54;99282.31;;;10.78;100.00
48352;BME280;34163;49.314;6.752;2023-07-02T18:15:19;99286.38;;;10.67;100.00
48352;BME280;34163;49.314;6.752;2023-07-02T18:17:44;99285.81;;;10.78;100.00
48352;BME280;34163;49.314;6.752;2023-07-02T18:20:10;99286.84;;;10.58;100.00
48352;BME280;34163;49.314;6.752;2023-07-02T18:22:35;99283.25;;;10.59;100.00
48352;BME280;34163;49.314;6.752;2023-07-02T18:25:00;99285.72;;;10.80;100.00
48352;BME280;34163;49.314;6.752;2023-07-02T18:27:26;99286.53;;;10.64;100.00
48352;BME280;34163;49.314;6.752;2023-07-02T18:29:51;99284.75;;;10.65;100.00
48352;BME280;34163;49.314;6.752;2023-07-02T18:32:16;99285.59;;;10.65;100.00
48352;BME280;34163;49.314;6.752;2023-07-02T18:34:42;99289.19;;;10.64;100.00
48352;BME280;34163;49.314;6.752;2023-07-02T18:37:10;99285.44;;;10.68;100.00
48352;BME280;34163;49.314;6.752;2023-07-02T18:39:36;99288.09;;;10.68;100.00
48352;BME280;34163;49.314;6.752;2023-07-02T18:42:03;99279.59;;;10.62;100.00
48352;BME280;34163;49.314;6.752;2023-07-02T18:44:29;99286.19;;;10.70;100.00
48352;BME280;34163;49.314;6.752;2023-07-02T18:47:05;99284.97;;;10.60;100.00
48352;BME280;34163;49.314;6.752;2023-07-02T18:49:31;99282.56;;;10.56;100.00
48352;BME280;34163;49.314;6.752;2023-07-02T18:52:01;99280.75;;;10.56;100.00
48352;BME280;34163;49.314;6.752;2023-07-02T18:54:26;99283.91;;;10.64;100.00
48352;BME280;34163;49.314;6.752;2023-07-02T18:56:54;99277.63;;;10.65;100.00
48352;BME280;34163;49.314;6.752;2023-07-02T18:59:20;99274.22;;;10.81;100.00
48352;BME280;34163;49.314;6.752;2023-07-02T19:01:45;99280.97;;;10.69;100.00
48352;BME280;34163;49.314;6.752;2023-07-02T19:04:10;99276.53;;;10.87;100.00
48352;BME280;34163;49.314;6.752;2023-07-02T19:06:36;99271.19;;;10.71;100.00
48352;BME280;34163;49.314;6.752;2023-07-02T19:09:01;99272.41;;;10.64;100.00
48352;BME280;34163;49.314;6.752;2023-07-02T19:11:26;99273.69;;;10.74;100.00
48352;BME280;34163;49.314;6.752;2023-07-02T19:13:53;99270.00;;;10.77;100.00
48352;BME280;34163;49.314;6.752;2023-07-02T19:16:19;99276.09;;;10.61;100.00
48352;BME280;34163;49.314;6.752;2023-07-02T19:18:44;99274.22;;;10.63;100.00
48352;BME280;34163;49.314;6.752;2023-07-02T19:21:09;99283.03;;;10.64;100.00
48352;BME280;34163;49.314;6.752;2023-07-02T19:23:38;99275.88;;;10.66;100.00
48352;BME280;34163;49.314;6.752;2023-07-02T19:26:04;99282.25;;;10.62;100.00
48352;BME280;34163;49.314;6.752;2023-07-02T19:28:29;99280.97;;;10.69;100.00
48352;BME280;34163;49.314;6.752;2023-07-02T19:30:54;99282.84;;;10.84;100.00
48352;BME280;34163;49.314;6.752;2023-07-02T19:33:21;99285.59;;;10.65;100.00
48352;BME280;34163;49.314;6.752;2023-07-02T19:35:47;99280.91;;;10.70;100.00
48352;BME280;34163;49.314;6.752;2023-07-02T19:38:12;99283.16;;;10.78;100.00
48352;BME280;34163;49.314;6.752;2023-07-02T19:40:37;99286.63;;;10.80;100.00
48352;BME280;34163;49.314;6.752;2023-07-02T19:43:03;99283.31;;;10.93;100.00
48352;BME280;34163;49.314;6.752;2023-07-02T19:45:28;99287.47;;;10.81;100.00
48352;BME280;34163;49.314;6.752;2023-07-02T19:47:53;99292.22;;;10.74;100.00
48352;BME280;34163;49.314;6.752;2023-07-02T19:50:18;99291.03;;;10.80;100.00
48352;BME280;34163;49.314;6.752;2023-07-02T19:52:44;99293.00;;;10.76;100.00
48352;BME280;34163;49.314;6.752;2023-07-02T19:55:10;99295.72;;;10.75;100.00
48352;BME280;34163;49.314;6.752;2023-07-02T19:57:41;99293.06;;;10.75;100.00
48352;BME280;34163;49.314;6.752;2023-07-02T20:00:06;99300.47;;;10.85;100.00
48352;BME280;34163;49.314;6.752;2023-07-02T20:02:33;99303.97;;;10.68;100.00
48352;BME280;34163;49.314;6.752;2023-07-02T20:05:00;99307.81;;;10.63;100.00
48352;BME280;34163;49.314;6.752;2023-07-02T20:07:26;99307.41;;;10.70;100.00
48352;BME280;34163;49.314;6.752;2023-07-02T20:09:55;99298.53;;;10.71;100.00
48352;BME280;34163;49.314;6.752;2023-07-02T20:12:20;99303.81;;;10.71;100.00
48352;BME280;34163;49.314;6.752;2023-07-02T20:14:47;99312.38;;;10.77;100.00
48352;BME280;34163;49.314;6.752;2023-07-02T20:17:13;99308.50;;;10.84;100.00
48352;BME280;34163;49.314;6.752;2023-07-02T20:19:40;99317.69;;;10.77;100.00
48352;BME280;34163;49.314;6.752;2023-07-02T20:22:08;99314.50;;;10.87;100.00
48352;BME280;34163;49.314;6.752;2023-07-02T20:24:35;99313.13;;;10.80;100.00
48352;BME280;34163;49.314;6.752;2023-07-02T20:27:00;99315.69;;;10.82;100.00
48352;BME280;34163;49.314;6.752;2023-07-02T20:29:25;99310.69;;;10.76;100.00
48352;BME280;34163;49.314;6.752;2023-07-02T20:31:51;99311.00;;;10.69;100.00
48352;BME280;34163;49.314;6.752;2023-07-02T20:34:17;99314.44;;;10.71;100.00
48352;BME280;34163;49.314;6.752;2023-07-02T20:36:43;99308.50;;;10.66;100.00
48352;BME280;34163;49.314;6.752;2023-07-02T20:39:09;99314.88;;;10.62;100.00
48352;BME280;34163;49.314;6.752;2023-07-02T20:41:34;99308.34;;;10.69;100.00
48352;BME280;34163;49.314;6.752;2023-07-02T20:43:59;99315.53;;;10.67;100.00
48352;BME280;34163;49.314;6.752;2023-07-02T20:46:25;99319.81;;;10.70;100.00
48352;BME280;34163;49.314;6.752;2023-07-02T20:48:51;99315.13;;;10.75;100.00
48352;BME280;34163;49.314;6.752;2023-07-02T20:51:16;99312.88;;;10.67;100.00
48352;BME280;34163;49.314;6.752;2023-07-02T20:53:41;99317.84;;;10.73;100.00
48352;BME280;34163;49.314;6.752;2023-07-02T20:56:07;99314.28;;;10.75;100.00
48352;BME280;34163;49.314;6.752;2023-07-02T20:58:32;99322.16;;;10.76;100.00
48352;BME280;34163;49.314;6.752;2023-07-02T21:01:04;99322.91;;;10.78;100.00
48352;BME280;34163;49.314;6.752;2023-07-02T21:03:30;99324.25;;;10.69;100.00
48352;BME280;34163;49.314;6.752;2023-07-02T21:05:55;99322.16;;;10.76;100.00
48352;BME280;34163;49.314;6.752;2023-07-02T21:08:23;99326.91;;;10.69;100.00
48352;BME280;34163;49.314;6.752;2023-07-02T21:10:48;99323.78;;;10.61;100.00
48352;BME280;34163;49.314;6.752;2023-07-02T21:13:14;99326.03;;;10.69;100.00
48352;BME280;34163;49.314;6.752;2023-07-02T21:15:39;99328.69;;;10.86;100.00
48352;BME280;34163;49.314;6.752;2023-07-02T21:18:04;99329.41;;;10.72;100.00
48352;BME280;34163;49.314;6.752;2023-07-02T21:20:29;99330.09;;;10.76;100.00
48352;BME280;34163;49.314;6.752;2023-07-02T21:22:55;99324.41;;;10.66;100.00
48352;BME280;34163;49.314;6.752;2023-07-02T21:25:20;99326.75;;;10.72;100.00
48352;BME280;34163;49.314;6.752;2023-07-02T21:27:46;99325.03;;;10.71;100.00
48352;BME280;34163;49.314;6.752;2023-07-02T21:30:11;99321.06;;;10.63;100.00
48352;BME280;34163;49.314;6.752;2023-07-02T21:32:36;99322.06;;;10.78;100.00
48352;BME280;34163;49.314;6.752;2023-07-02T21:35:02;99328.59;;;10.70;100.00
48352;BME280;34163;49.314;6.752;2023-07-02T21:37:27;99329.84;;;10.63;100.00
48352;BME280;34163;49.314;6.752;2023-07-02T21:39:52;99330.84;;;10.61;100.00
48352;BME280;34163;49.314;6.752;2023-07-02T21:42:17;99323.78;;;10.61;100.00
48352;BME280;34163;49.314;6.752;2023-07-02T21:44:43;99327.97;;;10.65;100.00
48352;BME280;34163;49.314;6.752;2023-07-02T21:47:08;99328.94;;;10.64;100.00
48352;BME280;34163;49.314;6.752;2023-07-02T21:49:33;99325.19;;;10.68;100.00
48352;BME280;34163;49.314;6.752;2023-07-02T21:51:58;99334.94;;;10.68;100.00
48352;BME280;34163;49.314;6.752;2023-07-02T21:54:24;99333.75;;;10.91;100.00
48352;BME280;34163;49.314;6.752;2023-07-02T21:56:49;99333.91;;;10.70;100.00
48352;BME280;34163;49.314;6.752;2023-07-02T21:59:15;99335.47;;;10.75;100.00
48352;BME280;34163;49.314;6.752;2023-07-02T22:01:41;99333.91;;;10.70;100.00
48352;BME280;34163;49.314;6.752;2023-07-02T22:04:06;99338.34;;;10.70;100.00
48352;BME280;34163;49.314;6.752;2023-07-02T22:06:31;99329.41;;;10.72;100.00
48352;BME280;34163;49.314;6.752;2023-07-02T22:08:56;99334.09;;;10.67;100.00
48352;BME280;34163;49.314;6.752;2023-07-02T22:11:22;99338.34;;;10.70;100.00
48352;BME280;34163;49.314;6.752;2023-07-02T22:13:50;99334.78;;;10.71;100.00
48352;BME280;34163;49.314;6.752;2023-07-02T22:16:15;99326.91;;;10.69;100.00
48352;BME280;34163;49.314;6.752;2023-07-02T22:18:41;99328.28;;;10.77;100.00
48352;BME280;34163;49.314;6.752;2023-07-02T22:21:06;99327.91;;;10.67;100.00
48352;BME280;34163;49.314;6.752;2023-07-02T22:23:32;99335.47;;;10.75;100.00
48352;BME280;34163;49.314;6.752;2023-07-02T22:25:58;99332.81;;;10.75;100.00
48352;BME280;34163;49.314;6.752;2023-07-02T22:28:23;99337.03;;;10.79;100.00
48352;BME280;34163;49.314;6.752;2023-07-02T22:30:49;99331.66;;;10.63;100.00
48352;BME280;34163;49.314;6.752;2023-07-02T22:33:14;99329.84;;;10.63;100.00
48352;BME280;34163;49.314;6.752;2023-07-02T22:35:39;99326.38;;;10.63;100.00
48352;BME280;34163;49.314;6.752;2023-07-02T22:38:04;99330.16;;;10.57;100.00
48352;BME280;34163;49.314;6.752;2023-07-02T22:40:29;99324.72;;;10.60;100.00
48352;BME280;34163;49.314;6.752;2023-07-02T22:42:55;99328.06;;;10.64;100.00
48352;BME280;34163;49.314;6.752;2023-07-02T22:45:20;99327.22;;;10.63;100.00
48352;BME280;34163;49.314;6.752;2023-07-02T22:47:46;99328.94;;;10.64;100.00
48352;BME280;34163;49.314;6.752;2023-07-02T22:50:12;99337.19;;;10.76;100.00
48352;BME280;34163;49.314;6.752;2023-07-02T22:52:38;99330.63;;;10.65;100.00
48352;BME280;34163;49.314;6.752;2023-07-02T22:55:04;99327.69;;;10.71;100.00
48352;BME280;34163;49.314;6.752;2023-07-02T22:57:32;99329.31;;;10.74;100.00
48352;BME280;34163;49.314;6.752;2023-07-02T22:59:58;99328.78;;;10.67;100.00
48352;BME280;34163;49.314;6.752;2023-07-02T23:02:25;99325.63;;;10.59;100.00
48352;BME280;34163;49.314;6.752;2023-07-02T23:04:50;99321.91;;;10.81;100.00
48352;BME280;34163;49.314;6.752;2023-07-02T23:07:15;99328.13;;;10.62;100.00
48352;BME280;34163;49.314;6.752;2023-07-02T23:09:40;99326.28;;;10.64;100.00
48352;BME280;34163;49.314;6.752;2023-07-02T23:12:06;99324.25;;;10.69;100.00
48352;BME280;34163;49.314;6.752;2023-07-02T23:14:31;99321.22;;;10.77;100.00
48352;BME280;34163;49.314;6.752;2023-07-02T23:16:57;99318.81;;;10.72;100.00
48352;BME280;34163;49.314;6.752;2023-07-02T23:19:22;99316.63;;;10.63;100.00
48352;BME280;34163;49.314;6.752;2023-07-02T23:21:47;99319.78;;;10.52;100.00
48352;BME280;34163;49.314;6.752;2023-07-02T23:24:13;99312.47;;;10.58;100.00
48352;BME280;34163;49.314;6.752;2023-07-02T23:26:40;99311.38;;;10.62;100.00
